Time;durP1;ratioP1;P1;durP2;ratioP2;P2;SDS_P1;SDS_P2;PMS_P1;PMS_P2;Temp;Humidity;BMP_temperature;BMP_pressure;BME280_temperature;BME280_humidity;BME280_pressure;Samples;Min_cycle;Max_cycle;Signal;HPM_P1;HPM_P2
2023/03/02 00:01:50;;;;;;;18.90;11.93;;;;;;;;;;5012663;28;20482;-52
2023/03/02 00:04:26;;;;;;;18.00;11.47;;;;;;;;;;5035136;28;20438;-52
2023/03/02 00:06:53;;;;;;;26.90;12.77;;;;;;;;;;5018570;28;20530;-52
2023/03/02 00:09:19;;;;;;;23.57;11.83;;;;;;;;;;5035917;28;20431;-53
2023/03/02 00:11:44;;;;;;;28.93;14.90;;;;;;;;;;5020768;28;20802;-52
2023/03/02 00:14:10;;;;;;;22.30;13.50;;;;;;;;;;5045106;28;20461;-52
2023/03/02 00:16:37;;;;;;;21.93;13.27;;;;;;;;;;5003309;28;20450;-51
2023/03/02 00:19:03;;;;;;;23.40;15.00;;;;;;;;;;5029479;28;20492;-55
2023/03/02 00:21:30;;;;;;;24.40;15.37;;;;;;;;;;5007353;28;20610;-52
2023/03/02 00:23:56;;;;;;;32.03;19.63;;;;;;;;;;5031318;28;20451;-50
2023/03/02 00:26:22;;;;;;;49.20;24.23;;;;;;;;;;5025168;28;20438;-53
2023/03/02 00:28:48;;;;;;;53.13;24.30;;;;;;;;;;5031968;28;20457;-51
2023/03/02 00:31:14;;;;;;;40.07;20.87;;;;;;;;;;4989178;28;20446;-53
2023/03/02 00:33:40;;;;;;;28.67;15.17;;;;;;;;;;5024701;28;20495;-54
2023/03/02 00:36:06;;;;;;;27.70;12.83;;;;;;;;;;4999546;28;20442;-54
2023/03/02 00:38:32;;;;;;;18.80;13.30;;;;;;;;;;5026353;28;20441;-53
2023/03/02 00:40:58;;;;;;;17.77;14.57;;;;;;;;;;5007776;28;20486;-52
2023/03/02 00:43:26;;;;;;;15.70;12.40;;;;;;;;;;5027848;28;20423;-53
2023/03/02 00:45:55;;;;;;;25.90;12.97;;;;;;;;;;5012020;28;20753;-52
2023/03/02 00:48:22;;;;;;;23.40;13.73;;;;;;;;;;5042507;28;20431;-52
2023/03/02 00:50:48;;;;;;;21.73;13.20;;;;;;;;;;5030460;28;20896;-53
2023/03/02 00:53:14;;;;;;;21.03;13.73;;;;;;;;;;5029349;28;20442;-54
2023/03/02 00:55:40;;;;;;;20.57;14.17;;;;;;;;;;5021187;28;20522;-52
2023/03/02 00:58:06;;;;;;;25.90;13.10;;;;;;;;;;5031926;28;20446;-53
2023/03/02 01:00:46;;;;;;;21.57;12.30;;;;;;;;;;5024959;28;20481;-52
2023/03/02 01:03:14;;;;;;;20.30;12.37;;;;;;;;;;5016046;28;20445;-53
2023/03/02 01:05:40;;;;;;;23.40;12.13;;;;;;;;;;5044286;28;20438;-53
2023/03/02 01:08:06;;;;;;;23.80;13.63;;;;;;;;;;5015519;28;20441;-53
2023/03/02 01:10:32;;;;;;;27.10;13.80;;;;;;;;;;5037817;28;20469;-51
2023/03/02 01:12:58;;;;;;;23.80;13.37;;;;;;;;;;5011740;28;20447;-58
2023/03/02 01:15:24;;;;;;;20.00;13.00;;;;;;;;;;5038310;28;20450;-52
2023/03/02 01:17:50;;;;;;;19.43;11.90;;;;;;;;;;5013147;28;20450;-53
2023/03/02 01:20:16;;;;;;;20.50;12.43;;;;;;;;;;5041789;28;20637;-52
2023/03/02 01:22:43;;;;;;;20.90;12.97;;;;;;;;;;5016971;28;20498;-54
2023/03/02 01:25:09;;;;;;;23.10;12.40;;;;;;;;;;5042911;28;20461;-54
2023/03/02 01:27:35;;;;;;;22.83;12.30;;;;;;;;;;5010030;28;20431;-53
2023/03/02 01:30:01;;;;;;;24.73;13.37;;;;;;;;;;5045111;28;21462;-55
2023/03/02 01:32:27;;;;;;;20.63;14.13;;;;;;;;;;4994110;28;24792;-55
2023/03/02 01:34:53;;;;;;;23.30;13.73;;;;;;;;;;5038313;28;20429;-55
2023/03/02 01:37:19;;;;;;;21.83;12.70;;;;;;;;;;5025060;28;20430;-55
2023/03/02 01:39:46;;;;;;;16.27;10.90;;;;;;;;;;5018803;28;20532;-54
2023/03/02 01:42:12;;;;;;;15.93;12.20;;;;;;;;;;5031309;28;20528;-55
2023/03/02 01:44:38;;;;;;;22.37;11.20;;;;;;;;;;5011479;28;20816;-53
2023/03/02 01:47:05;;;;;;;26.37;15.10;;;;;;;;;;5036193;28;20458;-54
2023/03/02 01:49:32;;;;;;;25.80;11.23;;;;;;;;;;5015642;28;20453;-55
2023/03/02 01:51:59;;;;;;;19.23;12.70;;;;;;;;;;5052567;28;20439;-53
2023/03/02 01:54:25;;;;;;;23.73;11.27;;;;;;;;;;5007225;28;21012;-54
2023/03/02 01:56:52;;;;;;;21.10;12.97;;;;;;;;;;5033833;28;20501;-54
2023/03/02 01:59:19;;;;;;;19.30;13.80;;;;;;;;;;5007721;28;20443;-53
2023/03/02 02:01:45;;;;;;;20.73;13.67;;;;;;;;;;5038061;28;20454;-53
2023/03/02 02:04:11;;;;;;;18.50;11.10;;;;;;;;;;5005322;28;20797;-53
2023/03/02 02:06:38;;;;;;;22.67;13.43;;;;;;;;;;5038438;28;20439;-53
2023/03/02 02:09:04;;;;;;;25.90;12.43;;;;;;;;;;5010854;28;20449;-53
2023/03/02 02:11:30;;;;;;;17.63;12.90;;;;;;;;;;5040532;28;21374;-51
2023/03/02 02:13:59;;;;;;;20.33;10.70;;;;;;;;;;5043670;28;20884;-52
2023/03/02 02:16:25;;;;;;;18.60;12.70;;;;;;;;;;5035548;28;20461;-53
2023/03/02 02:18:51;;;;;;;29.20;13.83;;;;;;;;;;5017239;28;20446;-53
2023/03/02 02:21:17;;;;;;;24.00;14.13;;;;;;;;;;5038745;28;23001;-54
2023/03/02 02:23:52;;;;;;;20.90;11.63;;;;;;;;;;5026899;28;20829;-56
2023/03/02 02:26:20;;;;;;;19.23;12.87;;;;;;;;;;5024729;28;20574;-53
2023/03/02 02:28:59;;;;;;;22.83;13.00;;;;;;;;;;4996198;28;20457;-52
2023/03/02 02:31:35;;;;;;;24.77;12.93;;;;;;;;;;5022365;28;20498;-54
2023/03/02 02:34:04;;;;;;;22.83;12.70;;;;;;;;;;5019506;28;20454;-53
2023/03/02 02:36:32;;;;;;;19.77;14.00;;;;;;;;;;5037314;28;20438;-52
2023/03/02 02:38:59;;;;;;;23.20;14.47;;;;;;;;;;4981451;28;20901;-55
2023/03/02 02:41:27;;;;;;;32.30;14.70;;;;;;;;;;5039358;28;20478;-53
2023/03/02 02:43:53;;;;;;;20.00;12.40;;;;;;;;;;5035663;28;20450;-54
2023/03/02 02:46:19;;;;;;;19.33;12.00;;;;;;;;;;5019851;28;20943;-54
2023/03/02 02:48:45;;;;;;;26.67;14.33;;;;;;;;;;5005564;28;21131;-52
2023/03/02 02:51:13;;;;;;;27.70;14.77;;;;;;;;;;5040029;28;20442;-52
2023/03/02 02:53:45;;;;;;;22.20;14.30;;;;;;;;;;5021984;28;20847;-51
2023/03/02 02:56:11;;;;;;;31.40;14.70;;;;;;;;;;5043936;28;20507;-52
2023/03/02 02:58:39;;;;;;;19.80;13.13;;;;;;;;;;5023555;28;21122;-53
2023/03/02 03:01:06;;;;;;;20.20;13.60;;;;;;;;;;5034306;28;21019;-51
2023/03/02 03:03:36;;;;;;;17.20;11.37;;;;;;;;;;5037004;28;20473;-53
2023/03/02 03:06:03;;;;;;;21.10;12.97;;;;;;;;;;5043828;28;20525;-55
2023/03/02 03:08:51;;;;;;;24.60;14.87;;;;;;;;;;5024865;28;20562;-53
2023/03/02 03:11:22;;;;;;;28.13;12.23;;;;;;;;;;5016631;28;20830;-54
2023/03/02 03:13:48;;;;;;;21.47;12.80;;;;;;;;;;5039358;28;20432;-53
2023/03/02 03:16:14;;;;;;;22.33;12.60;;;;;;;;;;5028049;28;20926;-52
2023/03/02 03:18:44;;;;;;;23.03;12.90;;;;;;;;;;5055416;28;20484;-53
2023/03/02 03:21:10;;;;;;;28.20;11.70;;;;;;;;;;5022114;28;20482;-53
2023/03/02 03:23:37;;;;;;;27.50;14.10;;;;;;;;;;5037480;28;20458;-50
2023/03/02 03:26:03;;;;;;;25.57;14.87;;;;;;;;;;5013839;28;20435;-54
2023/03/02 03:28:29;;;;;;;21.90;12.10;;;;;;;;;;5031443;28;20780;-52
2023/03/02 03:30:55;;;;;;;27.63;13.03;;;;;;;;;;5013756;28;20457;-51
2023/03/02 03:33:21;;;;;;;25.67;13.47;;;;;;;;;;5035300;28;20442;-51
2023/03/02 03:35:47;;;;;;;20.63;13.40;;;;;;;;;;5031235;28;20504;-54
2023/03/02 03:38:13;;;;;;;24.10;14.97;;;;;;;;;;5036592;28;20500;-52
2023/03/02 03:40:39;;;;;;;25.50;13.57;;;;;;;;;;4993466;28;20458;-51
2023/03/02 03:43:05;;;;;;;17.63;12.13;;;;;;;;;;5034700;28;20437;-54
2023/03/02 03:45:31;;;;;;;20.07;13.27;;;;;;;;;;5015362;28;20433;-53
2023/03/02 03:47:57;;;;;;;17.97;11.40;;;;;;;;;;5045559;28;20438;-53
2023/03/02 03:50:23;;;;;;;23.87;13.83;;;;;;;;;;5022285;28;21061;-52
2023/03/02 03:52:49;;;;;;;23.13;13.40;;;;;;;;;;5030456;28;20480;-51
2023/03/02 03:55:15;;;;;;;20.80;12.17;;;;;;;;;;5029318;28;20457;-53
2023/03/02 03:57:41;;;;;;;28.00;14.50;;;;;;;;;;5038331;28;20425;-53
2023/03/02 04:00:09;;;;;;;28.13;13.43;;;;;;;;;;5026595;28;20473;-53
2023/03/02 04:02:36;;;;;;;27.60;15.10;;;;;;;;;;5020954;28;20475;-54
2023/03/02 04:05:05;;;;;;;23.40;14.10;;;;;;;;;;5035525;28;20453;-54
2023/03/02 04:07:34;;;;;;;24.30;12.97;;;;;;;;;;5025701;28;20525;-53
2023/03/02 04:10:13;;;;;;;25.10;13.37;;;;;;;;;;5029892;28;21042;-54
2023/03/02 04:12:39;;;;;;;18.77;13.47;;;;;;;;;;5018080;28;20449;-55
2023/03/02 04:15:06;;;;;;;26.20;14.57;;;;;;;;;;5037877;28;20434;-53
2023/03/02 04:17:32;;;;;;;24.70;14.60;;;;;;;;;;5029440;28;20492;-54
2023/03/02 04:19:58;;;;;;;23.13;12.93;;;;;;;;;;5044091;28;20870;-53
2023/03/02 04:22:24;;;;;;;25.37;14.40;;;;;;;;;;5040864;28;21682;-51
2023/03/02 04:24:50;;;;;;;24.90;14.70;;;;;;;;;;5042059;28;20466;-53
2023/03/02 04:27:16;;;;;;;28.50;13.13;;;;;;;;;;5016026;28;20454;-53
2023/03/02 04:29:43;;;;;;;22.53;12.90;;;;;;;;;;5039798;28;20427;-51
2023/03/02 04:32:09;;;;;;;21.07;14.53;;;;;;;;;;5009427;28;20493;-52
2023/03/02 04:34:35;;;;;;;22.07;12.87;;;;;;;;;;5036347;28;20431;-51
2023/03/02 04:37:01;;;;;;;24.23;13.57;;;;;;;;;;5038877;28;20452;-55
2023/03/02 04:39:27;;;;;;;23.60;12.93;;;;;;;;;;5038865;28;20430;-53
2023/03/02 04:41:53;;;;;;;25.03;13.60;;;;;;;;;;4996152;28;20991;-53
2023/03/02 04:44:19;;;;;;;20.17;14.57;;;;;;;;;;5036874;28;20954;-53
2023/03/02 04:46:45;;;;;;;21.60;13.27;;;;;;;;;;5012936;28;20446;-52
2023/03/02 04:49:12;;;;;;;26.03;14.57;;;;;;;;;;5036119;28;20185;-52
2023/03/02 04:51:39;;;;;;;21.00;12.80;;;;;;;;;;5037809;28;20467;-49
2023/03/02 04:54:07;;;;;;;18.27;13.23;;;;;;;;;;5037639;28;20543;-52
2023/03/02 04:56:33;;;;;;;26.30;13.67;;;;;;;;;;5015000;28;20886;-53
2023/03/02 04:58:59;;;;;;;30.93;16.37;;;;;;;;;;5037239;28;20430;-53
2023/03/02 05:01:24;;;;;;;28.20;15.63;;;;;;;;;;5009378;28;20470;-53
2023/03/02 05:03:51;;;;;;;25.10;14.50;;;;;;;;;;5046252;28;20434;-52
2023/03/02 05:06:17;;;;;;;24.30;14.13;;;;;;;;;;5004464;28;20483;-53
2023/03/02 05:08:43;;;;;;;28.00;12.57;;;;;;;;;;5043978;28;20458;-53
2023/03/02 05:11:09;;;;;;;21.10;14.00;;;;;;;;;;5035373;28;20426;-53
2023/03/02 05:13:35;;;;;;;21.70;15.03;;;;;;;;;;5056002;28;20434;-53
2023/03/02 05:16:07;;;;;;;24.20;13.57;;;;;;;;;;5003159;28;20454;-52
2023/03/02 05:18:34;;;;;;;27.13;16.60;;;;;;;;;;5018078;28;20445;-54
2023/03/02 05:21:00;;;;;;;25.80;13.30;;;;;;;;;;5041710;28;20482;-53
2023/03/02 05:23:30;;;;;;;23.23;13.53;;;;;;;;;;5038214;28;20430;-53
2023/03/02 05:25:56;;;;;;;23.10;12.90;;;;;;;;;;5032636;28;20544;-53
2023/03/02 05:28:23;;;;;;;27.37;15.70;;;;;;;;;;5013655;28;20457;-54
2023/03/02 05:30:48;;;;;;;23.53;14.77;;;;;;;;;;5035621;28;20445;-53
2023/03/02 05:33:15;;;;;;;29.10;15.87;;;;;;;;;;5011777;28;20865;-55
2023/03/02 05:35:41;;;;;;;26.67;16.03;;;;;;;;;;5038713;28;20517;-53
2023/03/02 05:38:08;;;;;;;24.97;15.37;;;;;;;;;;5005042;28;20966;-53
2023/03/02 05:40:34;;;;;;;22.90;13.40;;;;;;;;;;5033313;28;20516;-56
2023/03/02 05:43:00;;;;;;;27.20;14.77;;;;;;;;;;5036305;28;20444;-54
2023/03/02 05:45:27;;;;;;;29.37;16.10;;;;;;;;;;5028610;28;20423;-53
2023/03/02 05:47:53;;;;;;;23.67;14.60;;;;;;;;;;4985306;28;20709;-52
2023/03/02 05:50:19;;;;;;;26.10;14.57;;;;;;;;;;5046453;28;21275;-52
2023/03/02 05:52:45;;;;;;;24.57;13.53;;;;;;;;;;5036448;28;20427;-53
2023/03/02 05:55:11;;;;;;;26.97;15.17;;;;;;;;;;5037502;28;20477;-53
2023/03/02 05:57:37;;;;;;;28.67;15.17;;;;;;;;;;5007978;28;20431;-52
2023/03/02 06:00:04;;;;;;;31.90;16.47;;;;;;;;;;5047080;28;20551;-52
2023/03/02 06:02:31;;;;;;;21.83;16.00;;;;;;;;;;5013175;28;20455;-53
2023/03/02 06:04:56;;;;;;;24.30;14.80;;;;;;;;;;5038914;28;20423;-51
2023/03/02 06:07:22;;;;;;;23.30;14.70;;;;;;;;;;5026998;28;20450;-52
2023/03/02 06:09:49;;;;;;;29.43;16.10;;;;;;;;;;5037937;28;20502;-52
2023/03/02 06:12:16;;;;;;;26.07;15.43;;;;;;;;;;5031048;28;20429;-52
2023/03/02 06:14:43;;;;;;;30.03;15.80;;;;;;;;;;5038596;28;20508;-52
2023/03/02 06:17:14;;;;;;;24.50;13.67;;;;;;;;;;5025920;28;20457;-52
2023/03/02 06:19:40;;;;;;;24.43;16.00;;;;;;;;;;5002116;28;20498;-54
2023/03/02 06:22:06;;;;;;;29.50;16.57;;;;;;;;;;5041627;28;20508;-53
2023/03/02 06:24:32;;;;;;;22.57;15.50;;;;;;;;;;5030309;28;21475;-52
2023/03/02 06:26:58;;;;;;;27.57;16.00;;;;;;;;;;5025452;28;20446;-53
2023/03/02 06:29:24;;;;;;;30.77;16.10;;;;;;;;;;5008769;28;20438;-53
2023/03/02 06:31:50;;;;;;;30.10;16.13;;;;;;;;;;5034143;28;20445;-52
2023/03/02 06:34:16;;;;;;;22.40;15.87;;;;;;;;;;5010366;28;20461;-52
2023/03/02 06:36:42;;;;;;;27.73;15.97;;;;;;;;;;5032586;28;20446;-52
2023/03/02 06:39:14;;;;;;;21.53;14.70;;;;;;;;;;5024912;28;20581;-52
2023/03/02 06:41:40;;;;;;;24.17;15.97;;;;;;;;;;5036853;28;20489;-52
2023/03/02 06:44:06;;;;;;;25.70;16.37;;;;;;;;;;5030789;28;20431;-53
2023/03/02 06:46:32;;;;;;;25.03;15.23;;;;;;;;;;5040418;28;20492;-52
2023/03/02 06:48:58;;;;;;;27.37;15.00;;;;;;;;;;4993343;28;20715;-52
2023/03/02 06:51:24;;;;;;;22.70;14.80;;;;;;;;;;5031989;28;20914;-52
2023/03/02 06:53:50;;;;;;;27.07;16.20;;;;;;;;;;5031032;28;21614;-52
2023/03/02 06:56:16;;;;;;;26.80;17.37;;;;;;;;;;5031135;28;21042;-51
2023/03/02 06:58:42;;;;;;;23.43;15.20;;;;;;;;;;5031174;28;20434;-54
2023/03/02 07:01:08;;;;;;;23.87;15.80;;;;;;;;;;5019538;28;20483;-53
2023/03/02 07:03:34;;;;;;;29.63;16.07;;;;;;;;;;5027333;28;20990;-53
2023/03/02 07:06:01;;;;;;;26.63;17.90;;;;;;;;;;5007173;28;20434;-52
2023/03/02 07:08:26;;;;;;;25.60;16.20;;;;;;;;;;5033462;28;20487;-52
2023/03/02 07:10:52;;;;;;;27.73;17.30;;;;;;;;;;5010293;28;20434;-53
2023/03/02 07:13:19;;;;;;;28.10;15.20;;;;;;;;;;5037065;28;20438;-51
2023/03/02 07:15:44;;;;;;;26.47;14.67;;;;;;;;;;5027840;28;20435;-53
2023/03/02 07:18:10;;;;;;;28.53;15.67;;;;;;;;;;5033976;28;20507;-51
2023/03/02 07:20:37;;;;;;;24.70;15.53;;;;;;;;;;4992375;28;21362;-53
2023/03/02 07:23:03;;;;;;;25.33;14.10;;;;;;;;;;5011553;28;20640;-53
2023/03/02 07:25:29;;;;;;;24.73;15.50;;;;;;;;;;5046466;28;20457;-55
2023/03/02 07:27:55;;;;;;;34.37;17.93;;;;;;;;;;5031588;28;20430;-52
2023/03/02 07:30:21;;;;;;;24.00;14.10;;;;;;;;;;5043636;28;20539;-51
2023/03/02 07:32:47;;;;;;;31.03;16.10;;;;;;;;;;5016062;28;21584;-51
2023/03/02 07:35:13;;;;;;;23.27;15.30;;;;;;;;;;5038446;28;20438;-53
2023/03/02 07:37:39;;;;;;;22.37;13.70;;;;;;;;;;5020953;28;20824;-52
2023/03/02 07:40:06;;;;;;;23.40;15.27;;;;;;;;;;5045768;28;20568;-51
2023/03/02 07:42:32;;;;;;;23.03;15.53;;;;;;;;;;5038611;28;20448;-53
2023/03/02 07:44:58;;;;;;;27.07;15.57;;;;;;;;;;5044161;28;20449;-50
2023/03/02 07:47:24;;;;;;;22.40;15.47;;;;;;;;;;5038577;28;20427;-51
2023/03/02 07:49:50;;;;;;;23.83;13.67;;;;;;;;;;5043568;28;20449;-53
2023/03/02 07:52:16;;;;;;;22.70;17.80;;;;;;;;;;4994634;28;20611;-51
2023/03/02 07:54:42;;;;;;;27.30;15.80;;;;;;;;;;5041645;28;20525;-52
2023/03/02 07:57:08;;;;;;;33.37;16.10;;;;;;;;;;5039755;28;20548;-52
2023/03/02 07:59:34;;;;;;;31.27;18.27;;;;;;;;;;5036470;28;20445;-53
2023/03/02 08:02:00;;;;;;;24.40;15.47;;;;;;;;;;5031367;28;20644;-53
2023/03/02 08:04:26;;;;;;;31.30;15.50;;;;;;;;;;5045580;28;20779;-53
2023/03/02 08:06:52;;;;;;;23.03;14.30;;;;;;;;;;5041914;28;20533;-52
2023/03/02 08:09:18;;;;;;;25.33;15.50;;;;;;;;;;5030142;28;20453;-51
2023/03/02 08:11:46;;;;;;;27.73;15.10;;;;;;;;;;5040447;28;20434;-54
2023/03/02 08:14:12;;;;;;;27.57;14.47;;;;;;;;;;5039626;28;20445;-54
2023/03/02 08:16:38;;;;;;;27.13;16.40;;;;;;;;;;5044451;28;20462;-52
2023/03/02 08:19:04;;;;;;;23.93;14.40;;;;;;;;;;5029240;28;20445;-50
2023/03/02 08:21:32;;;;;;;29.17;15.10;;;;;;;;;;5043096;28;20481;-54
2023/03/02 08:23:58;;;;;;;31.13;16.50;;;;;;;;;;4991623;28;20496;-53
2023/03/02 08:26:24;;;;;;;23.73;14.87;;;;;;;;;;5044689;28;20438;-52
2023/03/02 08:28:50;;;;;;;21.17;12.50;;;;;;;;;;5026476;28;20463;-52
2023/03/02 08:31:16;;;;;;;27.17;15.43;;;;;;;;;;5031383;28;20507;-53
2023/03/02 08:33:42;;;;;;;28.50;15.03;;;;;;;;;;5018832;28;20423;-55
2023/03/02 08:36:09;;;;;;;29.07;15.83;;;;;;;;;;5037940;28;20471;-53
2023/03/02 08:38:34;;;;;;;34.33;15.17;;;;;;;;;;5017994;28;20430;-53
2023/03/02 08:41:05;;;;;;;26.37;14.97;;;;;;;;;;5015857;28;20497;-53
2023/03/02 08:43:31;;;;;;;24.20;15.03;;;;;;;;;;5046465;28;20429;-52
2023/03/02 08:45:57;;;;;;;26.37;15.47;;;;;;;;;;5038765;28;20828;-52
2023/03/02 08:48:23;;;;;;;22.10;14.80;;;;;;;;;;5041551;28;20654;-51
2023/03/02 08:51:02;;;;;;;25.10;16.80;;;;;;;;;;5015060;28;20493;-54
2023/03/02 08:53:29;;;;;;;29.87;15.60;;;;;;;;;;5041190;28;20489;-53
2023/03/02 08:55:55;;;;;;;25.03;15.40;;;;;;;;;;4998804;28;20997;-53
2023/03/02 08:58:21;;;;;;;27.90;15.47;;;;;;;;;;5038282;28;20544;-51
2023/03/02 09:00:47;;;;;;;17.43;12.60;;;;;;;;;;5042581;28;20486;-52
2023/03/02 09:03:13;;;;;;;26.73;13.40;;;;;;;;;;5019312;28;20462;-52
2023/03/02 09:05:39;;;;;;;22.33;13.63;;;;;;;;;;5041800;28;20987;-53
2023/03/02 09:08:05;;;;;;;23.10;14.07;;;;;;;;;;5017190;28;20443;-50
2023/03/02 09:10:31;;;;;;;21.83;13.73;;;;;;;;;;5046315;28;20528;-54
2023/03/02 09:12:57;;;;;;;24.10;13.70;;;;;;;;;;5018485;28;20461;-53
2023/03/02 09:15:23;;;;;;;20.70;14.00;;;;;;;;;;5044319;28;22272;-52
2023/03/02 09:17:49;;;;;;;24.17;14.40;;;;;;;;;;5040609;28;20460;-52
2023/03/02 09:20:15;;;;;;;22.63;12.17;;;;;;;;;;5045150;28;20462;-51
2023/03/02 09:22:47;;;;;;;23.30;13.13;;;;;;;;;;5018192;28;20636;-54
2023/03/02 09:25:13;;;;;;;23.30;13.70;;;;;;;;;;5045560;28;20434;-51
2023/03/02 09:27:39;;;;;;;25.10;14.53;;;;;;;;;;4987273;28;20463;-52
2023/03/02 09:30:05;;;;;;;19.20;13.27;;;;;;;;;;5013012;28;20454;-52
2023/03/02 09:32:31;;;;;;;25.20;14.23;;;;;;;;;;5031775;28;20442;-53
2023/03/02 09:34:57;;;;;;;22.63;12.30;;;;;;;;;;5041235;28;21057;-53
2023/03/02 09:37:23;;;;;;;21.10;13.17;;;;;;;;;;5040129;28;20943;-52
2023/03/02 09:39:49;;;;;;;16.80;12.60;;;;;;;;;;5017436;28;20466;-52
2023/03/02 09:42:21;;;;;;;20.80;13.57;;;;;;;;;;5040640;28;20458;-52
2023/03/02 09:44:59;;;;;;;20.17;12.40;;;;;;;;;;5011700;28;20494;-50
2023/03/02 09:47:35;;;;;;;21.13;13.03;;;;;;;;;;5045944;28;20466;-53
2023/03/02 09:50:04;;;;;;;20.30;13.40;;;;;;;;;;5036706;28;20516;-53
2023/03/02 09:52:30;;;;;;;17.00;11.13;;;;;;;;;;5033118;28;20465;-55
2023/03/02 09:54:58;;;;;;;24.90;12.80;;;;;;;;;;5020644;28;20422;-54
2023/03/02 09:57:51;;;;;;;19.07;12.90;;;;;;;;;;5048081;28;20430;-52
2023/03/02 10:00:26;;;;;;;25.53;13.37;;;;;;;;;;5019623;28;20489;-55
2023/03/02 10:02:57;;;;;;;26.60;13.10;;;;;;;;;;5029455;28;20437;-52
2023/03/02 10:06:01;;;;;;;23.53;14.10;;;;;;;;;;5036181;28;21355;-55
2023/03/02 10:08:27;;;;;;;37.87;12.73;;;;;;;;;;4997321;28;20948;-53
2023/03/02 10:11:01;;;;;;;24.60;15.20;;;;;;;;;;4993528;28;20463;-52
2023/03/02 10:13:42;;;;;;;22.67;14.83;;;;;;;;;;4993076;28;20438;-51
2023/03/02 10:16:13;;;;;;;20.83;12.10;;;;;;;;;;5033981;28;20457;-53
2023/03/02 10:18:45;;;;;;;24.33;13.07;;;;;;;;;;5018176;28;20503;-52
2023/03/02 10:21:14;;;;;;;23.20;11.43;;;;;;;;;;5028438;28;20517;-54
2023/03/02 10:24:00;;;;;;;20.83;12.20;;;;;;;;;;5023257;28;20547;-52
2023/03/02 10:26:31;;;;;;;19.60;12.63;;;;;;;;;;5021021;28;20435;-52
2023/03/02 10:29:15;;;;;;;20.73;13.00;;;;;;;;;;5032209;28;20457;-52
2023/03/02 10:31:42;;;;;;;21.43;13.40;;;;;;;;;;5004293;28;21105;-53
2023/03/02 10:34:11;;;;;;;18.20;11.23;;;;;;;;;;5022720;28;20858;-51
2023/03/02 10:36:38;;;;;;;20.00;12.50;;;;;;;;;;5032404;28;20441;-51
2023/03/02 10:39:06;;;;;;;18.83;11.87;;;;;;;;;;5038459;28;20426;-51
2023/03/02 10:41:39;;;;;;;21.70;11.33;;;;;;;;;;5012852;28;21071;-52
2023/03/02 10:44:15;;;;;;;19.17;12.73;;;;;;;;;;5032989;28;21333;-51
2023/03/02 10:46:41;;;;;;;16.07;11.30;;;;;;;;;;5031831;28;20442;-52
2023/03/02 10:49:23;;;;;;;23.20;12.53;;;;;;;;;;5038007;28;20430;-54
2023/03/02 10:51:54;;;;;;;20.90;13.70;;;;;;;;;;5012457;28;23394;-52
2023/03/02 10:54:20;;;;;;;19.17;12.83;;;;;;;;;;5033334;28;20481;-53
2023/03/02 10:56:50;;;;;;;20.57;12.50;;;;;;;;;;5012454;28;20434;-52
2023/03/02 10:59:28;;;;;;;18.20;12.20;;;;;;;;;;5039994;28;20473;-54
2023/03/02 11:02:08;;;;;;;22.17;13.50;;;;;;;;;;5001738;28;20603;-53
2023/03/02 11:04:34;;;;;;;17.60;11.67;;;;;;;;;;5050948;28;20431;-51
2023/03/02 11:07:07;;;;;;;23.97;14.00;;;;;;;;;;5031804;28;20527;-52
2023/03/02 11:09:33;;;;;;;23.83;12.60;;;;;;;;;;5029371;28;20448;-53
2023/03/02 11:12:00;;;;;;;23.77;12.70;;;;;;;;;;5036840;28;20438;-51
2023/03/02 11:14:26;;;;;;;20.17;12.77;;;;;;;;;;5008004;28;20529;-52
2023/03/02 11:16:52;;;;;;;17.40;13.90;;;;;;;;;;5037007;28;20550;-54
2023/03/02 11:19:25;;;;;;;26.93;14.33;;;;;;;;;;5012564;28;20481;-51
2023/03/02 11:21:51;;;;;;;20.40;12.83;;;;;;;;;;5026476;28;20502;-52
2023/03/02 11:24:21;;;;;;;19.50;12.93;;;;;;;;;;5008760;28;20525;-53
2023/03/02 11:26:54;;;;;;;23.30;13.80;;;;;;;;;;5027806;28;20430;-52
2023/03/02 11:29:41;;;;;;;23.33;13.60;;;;;;;;;;5029519;28;21216;-51
2023/03/02 11:32:26;;;;;;;18.00;11.87;;;;;;;;;;5053033;28;20441;-52
2023/03/02 11:34:59;;;;;;;15.47;11.80;;;;;;;;;;4997073;28;20512;-55
2023/03/02 11:37:31;;;;;;;22.37;14.00;;;;;;;;;;5052739;28;20458;-52
2023/03/02 11:40:25;;;;;;;17.20;11.57;;;;;;;;;;5015161;28;20469;-53
2023/03/02 11:42:51;;;;;;;20.43;13.47;;;;;;;;;;5035615;28;20458;-52
2023/03/02 11:45:19;;;;;;;17.07;12.03;;;;;;;;;;5030459;28;20438;-52
2023/03/02 11:47:47;;;;;;;18.60;12.50;;;;;;;;;;5053709;28;20450;-53
2023/03/02 11:50:14;;;;;;;20.50;15.20;;;;;;;;;;5030084;28;20431;-51
2023/03/02 11:52:41;;;;;;;20.33;13.37;;;;;;;;;;5043107;28;20529;-51
2023/03/02 11:55:19;;;;;;;19.60;14.73;;;;;;;;;;5033870;28;20426;-52
2023/03/02 11:57:48;;;;;;;19.60;12.60;;;;;;;;;;5038716;28;20441;-53
2023/03/02 12:00:17;;;;;;;18.27;13.50;;;;;;;;;;5029132;28;20928;-51
2023/03/02 12:02:42;;;;;;;21.27;13.73;;;;;;;;;;4990513;28;20443;-50
2023/03/02 12:05:28;;;;;;;18.47;12.67;;;;;;;;;;4990747;28;20847;-51
2023/03/02 12:07:56;;;;;;;18.00;12.63;;;;;;;;;;4984265;28;20435;-51
2023/03/02 12:10:30;;;;;;;16.77;13.10;;;;;;;;;;4971219;28;21035;-51
2023/03/02 12:13:02;;;;;;;17.93;12.30;;;;;;;;;;4993105;28;20493;-52
2023/03/02 12:15:39;;;;;;;18.10;12.73;;;;;;;;;;4973195;28;20458;-51
2023/03/02 12:18:27;;;;;;;20.27;13.40;;;;;;;;;;4987291;28;21051;-51
2023/03/02 12:21:00;;;;;;;17.70;12.47;;;;;;;;;;5004464;28;20528;-51
2023/03/02 12:23:26;;;;;;;16.47;12.17;;;;;;;;;;5013074;28;20532;-52
2023/03/02 12:26:03;;;;;;;15.10;12.93;;;;;;;;;;5000425;28;22163;-52
2023/03/02 12:28:32;;;;;;;18.93;13.57;;;;;;;;;;4976454;28;21178;-54
2023/03/02 12:31:02;;;;;;;22.50;14.20;;;;;;;;;;5033206;28;20905;-53
2023/03/02 12:33:28;;;;;;;17.03;13.47;;;;;;;;;;5013184;28;20454;-53
2023/03/02 12:36:01;;;;;;;22.40;14.27;;;;;;;;;;5039949;28;20446;-53
2023/03/02 12:38:29;;;;;;;16.37;12.97;;;;;;;;;;4994365;28;20989;-53
2023/03/02 12:41:34;;;;;;;18.50;13.20;;;;;;;;;;5039821;28;20500;-53
2023/03/02 12:44:12;;;;;;;16.03;11.60;;;;;;;;;;5009594;28;20434;-51
2023/03/02 12:46:39;;;;;;;15.77;13.30;;;;;;;;;;5040507;28;20445;-53
2023/03/02 12:49:17;;;;;;;20.97;12.73;;;;;;;;;;5013568;28;20438;-52
2023/03/02 12:51:45;;;;;;;18.70;13.40;;;;;;;;;;5049495;28;20516;-52
2023/03/02 12:54:18;;;;;;;17.03;11.87;;;;;;;;;;5008164;28;20449;-52
2023/03/02 12:56:44;;;;;;;19.03;12.70;;;;;;;;;;5037625;28;20542;-52
2023/03/02 12:59:19;;;;;;;18.00;13.17;;;;;;;;;;5012772;28;20468;-53
2023/03/02 13:01:45;;;;;;;16.40;13.97;;;;;;;;;;5038335;28;20602;-52
2023/03/02 13:04:20;;;;;;;20.20;13.13;;;;;;;;;;5008093;28;20444;-51
2023/03/02 13:06:46;;;;;;;19.73;13.43;;;;;;;;;;5040162;28;20454;-53
2023/03/02 13:09:12;;;;;;;18.47;14.10;;;;;;;;;;5000136;28;21169;-52
2023/03/02 13:11:38;;;;;;;17.17;13.70;;;;;;;;;;5052848;28;20527;-51
2023/03/02 13:14:17;;;;;;;20.90;13.20;;;;;;;;;;5033980;28;20438;-52
2023/03/02 13:16:42;;;;;;;24.43;16.07;;;;;;;;;;5020836;28;20496;-53
2023/03/02 13:19:14;;;;;;;15.57;12.57;;;;;;;;;;5027915;28;20438;-55
2023/03/02 13:21:40;;;;;;;16.37;13.50;;;;;;;;;;5029633;28;20314;-53
2023/03/02 13:24:38;;;;;;;19.03;13.70;;;;;;;;;;5033676;28;20536;-53
2023/03/02 13:27:07;;;;;;;19.83;15.67;;;;;;;;;;5016707;28;20511;-54
2023/03/02 13:29:34;;;;;;;18.30;14.63;;;;;;;;;;5018141;28;21464;-53
2023/03/02 13:32:15;;;;;;;18.20;15.27;;;;;;;;;;5038401;28;20439;-52
2023/03/02 13:34:45;;;;;;;22.23;15.50;;;;;;;;;;5013109;28;20447;-51
2023/03/02 13:37:30;;;;;;;18.43;15.40;;;;;;;;;;5035406;28;20485;-52
2023/03/02 13:39:57;;;;;;;22.33;15.10;;;;;;;;;;4994644;28;20517;-53
2023/03/02 13:42:27;;;;;;;21.50;13.73;;;;;;;;;;5034032;28;20893;-53
2023/03/02 13:44:53;;;;;;;20.77;15.10;;;;;;;;;;5035409;28;20438;-53
2023/03/02 13:47:22;;;;;;;19.30;14.17;;;;;;;;;;5007232;28;20433;-52
2023/03/02 13:49:48;;;;;;;18.83;14.07;;;;;;;;;;5039085;28;20179;-53
2023/03/02 13:52:21;;;;;;;20.60;13.50;;;;;;;;;;5010310;28;21606;-53
2023/03/02 13:54:47;;;;;;;23.13;12.60;;;;;;;;;;5024513;28;20656;-53
2023/03/02 13:57:14;;;;;;;20.03;13.20;;;;;;;;;;5012134;28;20783;-52
2023/03/02 13:59:41;;;;;;;20.83;13.40;;;;;;;;;;5030251;28;21290;-51
2023/03/02 14:02:25;;;;;;;20.10;13.83;;;;;;;;;;5006450;28;20478;-52
2023/03/02 14:04:51;;;;;;;23.90;15.40;;;;;;;;;;5033422;28;20960;-54
2023/03/02 14:07:18;;;;;;;25.97;12.70;;;;;;;;;;5012590;28;20434;-52
2023/03/02 14:09:44;;;;;;;21.47;12.57;;;;;;;;;;5035679;28;20597;-53
2023/03/02 14:12:12;;;;;;;20.80;13.53;;;;;;;;;;4999998;28;21460;-51
2023/03/02 14:14:38;;;;;;;20.37;12.87;;;;;;;;;;5036319;28;20808;-52
2023/03/02 14:17:09;;;;;;;22.77;14.10;;;;;;;;;;5029635;28;20449;-54
2023/03/02 14:19:35;;;;;;;19.63;13.90;;;;;;;;;;5048514;28;20513;-54
2023/03/02 14:22:01;;;;;;;19.83;13.37;;;;;;;;;;5012880;28;20475;-51
2023/03/02 14:24:27;;;;;;;23.70;14.13;;;;;;;;;;5030913;28;20229;-53